Pagrindinis puslapis
METAR-TAF:

METAR-TAF

Oro uostai :

Port Harkortas, Nigerija

platuma: 04-51N, ilguma: 007-01E, Aukštis: 18 m

Dabartinis oras

Ataskaita buvo paskelbta 2 valandos ir 13 minutes, ne 01:00 UTC
Ramus vėjas
Temperatūra 27°C
Drėgmė 94%
Slėgis 1007 hPa
Matomumas: 8000 m
Išsisklaidę debesys ne aukštis 800 ft

METAR: DNPO 220100Z 00000KT 8000 SCT008 27/26 Q1007 NOSIG

Laikas: 04:13 (03:13 UTC)


TAF: trūkstamas

Orai ataskaitas ir orų prognozės (METAR, TAF).

turimą stotys yra geltonos ir raudonos taškus žemėlapyje.

Perkelti pele per norėdami pamatyti stoties vardą.

Tada spustelėkite, norėdami matyti oro stebėjimo ir prognozės.

Norėdami pakeisti žemėlapį: spustelėkite ant žalios mygtukų su juodo kryžiaus žemyn,; žalią mygtuką su brūkšneliu, jei norite nutolinti; arba žalių rodyklių gretimoms žemėlapius.


METAR-TAF: